| time (UTC) | temp C | wind direction | speed KPH | gust KPH | rain 1hr cm | rain 24hr cm | rain mn cm | humidity % | barometer mb |
| 20260506015328 | 10 | 359 | 14.5 | 25.7 | 0.00 | 0.00 | 0.00 | 83 | 1011.1 |
| 20260506014824 | 10 | 333 | 12.9 | 17.7 | 0.00 | 0.00 | 0.00 | 83 | 1011.0 |
| 20260506014321 | 10 | 358 | 8.0 | 14.5 | 0.00 | 0.00 | 0.00 | 84 | 1010.7 |
| 20260506013818 | 10 | 287 | 6.4 | 17.7 | 0.00 | 0.00 | 0.00 | 83 | 1010.6 |
| 20260506013315 | 10 | 327 | 8.0 | 12.9 | 0.00 | 0.00 | 0.00 | 84 | 1010.8 |
| 20260506012812 | 10 | 23 | 12.9 | 24.1 | 0.00 | 0.00 | 0.00 | 84 | 1010.5 |
| 20260506012309 | 10 | 0 | 14.5 | 22.5 | 0.00 | 0.00 | 0.00 | 83 | 1010.7 |
| 20260506011806 | 10 | 30 | 8.0 | 17.7 | 0.00 | 0.00 | 0.00 | 83 | 1010.7 |
| 20260506011302 | 10 | 6 | 12.9 | 17.7 | 0.00 | 0.00 | 0.00 | 83 | 1010.7 |
| 20260506010800 | 10 | 38 | 12.9 | 25.7 | 0.00 | 0.00 | 0.00 | 83 | 1010.7 |
| 20260506010257 | 10 | 6 | 4.8 | 16.1 | 0.00 | 0.00 | 0.00 | 83 | 1010.5 |
| 20260506005754 | 10 | 20 | 4.8 | 16.1 | 0.00 | 0.00 | 0.00 | 82 | 1010.6 |
| 20260506005251 | 10 | 44 | 12.9 | 22.5 | 0.00 | 0.00 | 0.00 | 82 | 1010.3 |
| 20260506004746 | 10 | 21 | 14.5 | 20.9 | 0.00 | 0.00 | 0.00 | 82 | 1010.1 |
| 20260506004245 | 10 | 343 | 14.5 | 22.5 | 0.00 | 0.00 | 0.00 | 81 | 1010.0 |
| 20260506003741 | 10 | 5 | 11.3 | 14.5 | 0.00 | 0.00 | 0.00 | 82 | 1010.2 |
| 20260506003237 | 10 | 37 | 9.7 | 14.5 | 0.00 | 0.00 | 0.00 | 81 | 1009.9 |
| 20260506002734 | 10 | 43 | 8.0 | 12.9 | 0.00 | 0.00 | 0.00 | 80 | 1009.9 |
| 20260506002229 | 10 | 0 | 8.0 | 12.9 | 0.00 | 0.00 | 0.00 | 80 | 1009.9 |
| 20260506001726 | 10 | 345 | 12.9 | 22.5 | 0.00 | 0.00 | 0.00 | 80 | 1009.6 |
| 20260506001224 | 10 | 68 | 12.9 | 22.5 | 0.00 | 0.00 | 0.00 | 80 | 1009.7 |
| 20260506000720 | 10 | 337 | 11.3 | 25.7 | 0.00 | 0.00 | 0.00 | 79 | 1009.7 |
| 20260506000219 | 10 | 352 | 9.7 | 14.5 | 0.00 | 0.00 | 0.00 | 79 | 1009.8 |
| 20260505235715 | 11 | 51 | 12.9 | 24.1 | 0.00 | 0.00 | 0.00 | 79 | 1009.6 |
| 20260505235212 | 11 | 30 | 8.0 | 17.7 | 0.00 | 0.00 | 0.00 | 79 | 1009.5 |
| 20260505234709 | 11 | 9 | 17.7 | 32.2 | 0.00 | 0.00 | 0.00 | 79 | 1009.8 |
| 20260505234207 | 11 | 67 | 9.7 | 25.7 | 0.00 | 0.00 | 0.00 | 80 | 1009.4 |
| 20260505233703 | 11 | 10 | 9.7 | 20.9 | 0.00 | 0.00 | 0.00 | 79 | 1009.6 |
| 20260505233201 | 11 | 14 | 8.0 | 22.5 | 0.00 | 0.00 | 0.00 | 79 | 1009.9 |
| 20260505232658 | 11 | 339 | 14.5 | 24.1 | 0.00 | 0.00 | 0.00 | 79 | 1009.2 |
| 20260505232155 | 11 | 3 | 14.5 | 17.7 | 0.00 | 0.00 | 0.00 | 78 | 1009.4 |
| 20260505231652 | 11 | 24 | 12.9 | 20.9 | 0.00 | 0.00 | 0.00 | 78 | 1009.6 |
| 20260505231151 | 11 | 1 | 9.7 | 17.7 | 0.00 | 0.00 | 0.00 | 77 | 1009.7 |
| 20260505230648 | 11 | 25 | 17.7 | 22.5 | 0.00 | 0.00 | 0.00 | 77 | 1009.9 |
| 20260505230144 | 11 | 340 | 8.0 | 16.1 | 0.00 | 0.00 | 0.00 | 78 | 1009.7 |
| 20260505225635 | 11 | 60 | 12.9 | 20.9 | 0.00 | 0.00 | 0.00 | 77 | 1010.0 |
| 20260505225132 | 11 | 88 | 8.0 | 17.7 | 0.00 | 0.00 | 0.00 | 78 | 1009.6 |
| 20260505224628 | 11 | 344 | 14.5 | 22.5 | 0.00 | 0.00 | 0.00 | 77 | 1009.5 |
| 20260505224126 | 11 | 2 | 14.5 | 25.7 | 0.00 | 0.00 | 0.00 | 78 | 1009.2 |
| 20260505223623 | 12 | 31 | 8.0 | 16.1 | 0.00 | 0.00 | 0.00 | 77 | 1009.3 |
| 20260505223119 | 11 | 26 | 4.8 | 12.9 | 0.00 | 0.00 | 0.00 | 77 | 1009.7 |
| 20260505222616 | 11 | 352 | 11.3 | 16.1 | 0.00 | 0.00 | 0.00 | 77 | 1009.4 |
| 20260505222112 | 11 | 34 | 6.4 | 22.5 | 0.00 | 0.00 | 0.00 | 78 | 1009.1 |
| 20260505221609 | 11 | 26 | 14.5 | 24.1 | 0.00 | 0.00 | 0.00 | 78 | 1009.4 |
| 20260505221105 | 11 | 358 | 9.7 | 24.1 | 0.00 | 0.00 | 0.00 | 77 | 1009.1 |
| 20260505220603 | 12 | 35 | 11.3 | 22.5 | 0.00 | 0.00 | 0.00 | 76 | 1009.2 |
| 20260505220100 | 12 | 49 | 11.3 | 17.7 | 0.00 | 0.00 | 0.00 | 76 | 1009.0 |
| 20260505215558 | 12 | 107 | 6.4 | 17.7 | 0.00 | 0.00 | 0.00 | 76 | 1009.2 |
| 20260505215055 | 12 | 357 | 14.5 | 24.1 | 0.00 | 0.00 | 0.00 | 75 | 1008.8 |
| 20260505214553 | 12 | 55 | 8.0 | 17.7 | 0.00 | 0.00 | 0.00 | 77 | 1008.5 |
| 20260505214049 | 12 | 345 | 11.3 | 22.5 | 0.00 | 0.00 | 0.00 | 77 | 1008.5 |
| 20260505213548 | 12 | 15 | 14.5 | 25.7 | 0.00 | 0.00 | 0.00 | 77 | 1008.3 |
| 20260505213044 | 12 | 2 | 11.3 | 20.9 | 0.00 | 0.00 | 0.00 | 78 | 1008.5 |
| 20260505212540 | 12 | 86 | 8.0 | 24.1 | 0.00 | 0.00 | 0.00 | 77 | 1008.8 |
| 20260505212038 | 12 | 7 | 11.3 | 16.1 | 0.00 | 0.00 | 0.00 | 77 | 1008.3 |
| 20260505211534 | 12 | 13 | 9.7 | 12.9 | 0.00 | 0.00 | 0.00 | 77 | 1008.6 |
| 20260505211031 | 12 | 22 | 11.3 | 17.7 | 0.00 | 0.00 | 0.00 | 78 | 1008.1 |
| 20260505210528 | 12 | 21 | 12.9 | 24.1 | 0.00 | 0.00 | 0.00 | 77 | 1007.6 |
| 20260505210025 | 12 | 347 | 19.3 | 33.8 | 0.00 | 0.00 | 0.00 | 77 | 1007.8 |
| 20260505205523 | 12 | 22 | 14.5 | 35.4 | 0.00 | 0.00 | 0.00 | 77 | 1007.4 |
| 20260505205020 | 12 | 15 | 17.7 | 32.2 | 0.00 | 0.00 | 0.00 | 77 | 1007.4 |
| 20260505204518 | 12 | 14 | 19.3 | 24.1 | 0.00 | 0.00 | 0.00 | 77 | 1008.3 |
| 20260505204015 | 12 | 354 | 16.1 | 32.2 | 0.00 | 0.00 | 0.00 | 78 | 1007.9 |
| 20260505203511 | 12 | 338 | 11.3 | 17.7 | 0.00 | 0.00 | 0.00 | 78 | 1008.1 |
| 20260505203008 | 12 | 46 | 16.1 | 25.7 | 0.00 | 0.00 | 0.00 | 79 | 1008.2 |
| 20260505202504 | 12 | 0 | 14.5 | 22.5 | 0.00 | 0.00 | 0.00 | 79 | 1008.4 |
| 20260505202000 | 12 | 344 | 16.1 | 24.1 | 0.00 | 0.00 | 0.00 | 80 | 1008.0 |
| 20260505201457 | 12 | 35 | 9.7 | 12.9 | 0.00 | 0.00 | 0.00 | 80 | 1008.6 |
| 20260505200955 | 12 | 359 | 9.7 | 17.7 | 0.00 | 0.00 | 0.00 | 81 | 1008.2 |
| 20260505200453 | 12 | 3 | 12.9 | 20.9 | 0.00 | 0.00 | 0.00 | 81 | 1008.2 |
| 20260505195948 | 12 | 9 | 19.3 | 27.4 | 0.00 | 0.00 | 0.00 | 81 | 1008.1 |
| 20260505195446 | 12 | 350 | 11.3 | 27.4 | 0.00 | 0.00 | 0.00 | 80 | 1007.8 |
| 20260505194943 | 12 | 28 | 14.5 | 24.1 | 0.00 | 0.00 | 0.00 | 81 | 1007.5 |
| 20260505194440 | 12 | 65 | 24.1 | 32.2 | 0.00 | 0.00 | 0.00 | 82 | 1007.8 |
| 20260505193940 | 12 | 297 | 12.9 | 24.1 | 0.00 | 0.00 | 0.00 | 82 | 1007.9 |
| 20260505193438 | 12 | 348 | 17.7 | 22.5 | 0.00 | 0.00 | 0.00 | 82 | 1007.6 |
| 20260505192935 | 12 | 356 | 9.7 | 22.5 | 0.00 | 0.00 | 0.00 | 83 | 1007.6 |
| 20260505192434 | 12 | 64 | 16.1 | 22.5 | 0.00 | 0.00 | 0.00 | 83 | 1007.9 |
| 20260505191931 | 12 | 7 | 8.0 | 20.9 | 0.00 | 0.00 | 0.00 | 82 | 1007.6 |
| 20260505191430 | 12 | 323 | 9.7 | 16.1 | 0.00 | 0.00 | 0.00 | 83 | 1007.9 |
| 20260505190926 | 13 | 356 | 11.3 | 20.9 | 0.00 | 0.00 | 0.00 | 83 | 1007.8 |
| 20260505190421 | 13 | 356 | 12.9 | 29.0 | 0.00 | 0.00 | 0.00 | 83 | 1007.8 |
| 20260505185916 | 13 | 11 | 8.0 | 20.9 | 0.00 | 0.00 | 0.00 | 82 | 1007.7 |
| 20260505185414 | 13 | 341 | 24.1 | 37.0 | 0.00 | 0.00 | 0.00 | 82 | 1007.4 |
| 20260505184910 | 13 | 352 | 11.3 | 25.7 | 0.00 | 0.00 | 0.00 | 81 | 1007.0 |
| 20260505184407 | 13 | 308 | 12.9 | 27.4 | 0.00 | 0.00 | 0.00 | 81 | 1007.2 |
| 20260505183904 | 13 | 9 | 8.0 | 24.1 | 0.00 | 0.00 | 0.00 | 81 | 1007.4 |
| 20260505183401 | 13 | 50 | 9.7 | 24.1 | 0.00 | 0.00 | 0.00 | 81 | 1007.5 |
| 20260505182857 | 13 | 9 | 12.9 | 20.9 | 0.00 | 0.00 | 0.00 | 81 | 1007.4 |
| 20260505182354 | 13 | 16 | 12.9 | 16.1 | 0.00 | 0.00 | 0.00 | 80 | 1007.4 |
| 20260505181851 | 13 | 1 | 12.9 | 22.5 | 0.00 | 0.00 | 0.00 | 82 | 1007.1 |
| 20260505181348 | 13 | 26 | 9.7 | 24.1 | 0.00 | 0.00 | 0.00 | 82 | 1007.2 |
| 20260505180845 | 13 | 52 | 16.1 | 24.1 | 0.00 | 0.00 | 0.00 | 82 | 1007.1 |
| 20260505180341 | 13 | 21 | 17.7 | 27.4 | 0.00 | 0.00 | 0.00 | 83 | 1007.1 |
| 20260505175838 | 13 | 348 | 16.1 | 32.2 | 0.00 | 0.00 | 0.00 | 83 | 1006.9 |
| 20260505175334 | 13 | 359 | 11.3 | 27.4 | 0.00 | 0.00 | 0.00 | 83 | 1006.9 |
| 20260505174831 | 14 | 39 | 14.5 | 25.7 | 0.00 | 0.00 | 0.00 | 82 | 1006.8 |
| 20260505174329 | 13 | 19 | 16.1 | 27.4 | 0.00 | 0.00 | 0.00 | 83 | 1006.5 |
| 20260505173824 | 13 | 27 | 12.9 | 25.7 | 0.00 | 0.00 | 0.00 | 84 | 1006.4 |
| 20260505173320 | 13 | 83 | 17.7 | 29.0 | 0.00 | 0.00 | 0.00 | 84 | 1006.6 |
| 20260505172819 | 14 | 356 | 9.7 | 25.7 | 0.00 | 0.00 | 0.00 | 85 | 1006.6 |
| 20260505172316 | 14 | 32 | 11.3 | 17.7 | 0.00 | 0.00 | 0.00 | 84 | 1006.8 |
| 20260505171815 | 14 | 12 | 8.0 | 12.9 | 0.00 | 0.00 | 0.00 | 85 | 1006.3 |
| 20260505171313 | 14 | 351 | 8.0 | 20.9 | 0.00 | 0.00 | 0.00 | 85 | 1006.6 |
| 20260505170809 | 14 | 22 | 4.8 | 12.9 | 0.00 | 0.00 | 0.00 | 85 | 1006.3 |
| 20260505170306 | 14 | 336 | 11.3 | 17.7 | 0.00 | 0.00 | 0.00 | 85 | 1006.4 |
| 20260505165801 | 14 | 351 | 6.4 | 25.7 | 0.00 | 0.00 | 0.00 | 85 | 1006.0 |
| 20260505165257 | 14 | 337 | 14.5 | 22.5 | 0.00 | 0.00 | 0.00 | 85 | 1005.8 |
| 20260505164753 | 14 | 42 | 9.7 | 22.5 | 0.00 | 0.00 | 0.00 | 85 | 1005.7 |
| 20260505164250 | 14 | 353 | 11.3 | 22.5 | 0.00 | 0.00 | 0.00 | 85 | 1005.7 |
| 20260505163749 | 14 | 356 | 8.0 | 20.9 | 0.00 | 0.00 | 0.00 | 85 | 1005.5 |
| 20260505163247 | 15 | 334 | 16.1 | 20.9 | 0.00 | 0.00 | 0.00 | 86 | 1005.6 |
| 20260505162744 | 14 | 334 | 11.3 | 20.9 | 0.00 | 0.00 | 0.00 | 85 | 1005.4 |
| 20260505162241 | 15 | 337 | 12.9 | 17.7 | 0.00 | 0.00 | 0.00 | 85 | 1005.2 |
| 20260505161737 | 15 | 356 | 6.4 | 16.1 | 0.00 | 0.00 | 0.00 | 85 | 1005.2 |
| 20260505161235 | 15 | 357 | 4.8 | 20.9 | 0.00 | 0.00 | 0.00 | 87 | 1005.0 |
| 20260505160732 | 15 | 356 | 12.9 | 22.5 | 0.00 | 0.00 | 0.00 | 87 | 1004.7 |
| 20260505160230 | 15 | 352 | 8.0 | 27.4 | 0.00 | 0.00 | 0.00 | 87 | 1004.8 |
| 20260505153209 | 16 | 43 | 14.5 | 20.9 | 0.00 | 0.00 | 0.00 | 87 | 1003.3 |
| 20260505152706 | 16 | 358 | 8.0 | 25.7 | 0.00 | 0.00 | 0.00 | 87 | 1003.7 |
| 20260505152202 | 16 | 357 | 8.0 | 22.5 | 0.00 | 0.00 | 0.00 | 87 | 1003.2 |
| 20260505151657 | 16 | 331 | 9.7 | 24.1 | 0.00 | 0.00 | 0.00 | 87 | 1003.2 |
| 20260505151156 | 17 | 6 | 8.0 | 24.1 | 0.00 | 0.00 | 0.00 | 86 | 1003.1 |
| 20260505150651 | 20 | 327 | 11.3 | 22.5 | 0.00 | 0.00 | 0.00 | 87 | 1003.1 |
| 20260505150148 | 20 | 359 | 3.2 | 11.3 | 0.00 | 0.00 | 0.00 | 87 | 1002.6 |
| 20260505140617 | 21 | 344 | 1.6 | 1.6 | 0.00 | 0.00 | 0.00 | 81 | 1001.8 |
| 20260505140114 | 21 | 2 | 0.0 | 1.6 | 0.00 | 0.00 | 0.00 | 81 | 1001.7 |
| 20260505125030 | 20 | 335 | 0.0 | 0.0 | 0.00 | 0.00 | 0.00 | 86 | 1001.4 |
| 20260505124527 | 20 | 329 | 1.6 | 3.2 | 0.00 | 0.00 | 0.00 | 85 | 1001.3 |
| 20260505124023 | 20 | 331 | 0.0 | 1.6 | 0.00 | 0.00 | 0.00 | 84 | 1001.2 |
| 20260505123520 | 20 | 339 | 3.2 | 4.8 | 0.00 | 0.00 | 0.00 | 84 | 1001.1 |
| 20260505123016 | 20 | 216 | 4.8 | 12.9 | 0.00 | 0.00 | 0.00 | 84 | 1000.7 |
| 20260505122513 | 20 | 230 | 6.4 | 11.3 | 0.00 | 0.00 | 0.00 | 84 | 1000.7 |
| 20260505122010 | 20 | 218 | 11.3 | 16.1 | 0.00 | 0.00 | 0.00 | 83 | 1000.3 |
| 20260505121506 | 20 | 218 | 6.4 | 14.5 | 0.00 | 0.00 | 0.00 | 84 | 1000.5 |
| 20260505121003 | 20 | 214 | 8.0 | 9.7 | 0.00 | 0.00 | 0.00 | 84 | 1000.3 |
| 20260505120459 | 20 | 235 | 4.8 | 9.7 | 0.00 | 0.00 | 0.00 | 84 | 1000.2 |
| 20260505115958 | 20 | 214 | 8.0 | 14.5 | 0.00 | 0.00 | 0.00 | 84 | 1000.0 |
| 20260505115454 | 20 | 201 | 6.4 | 11.3 | 0.00 | 0.00 | 0.00 | 84 | 1000.3 |
| 20260505114953 | 20 | 251 | 6.4 | 11.3 | 0.00 | 0.00 | 0.00 | 84 | 1000.0 |
| 20260505114449 | 20 | 207 | 4.8 | 14.5 | 0.00 | 0.00 | 0.00 | 83 | 999.8 |
| 20260505113946 | 20 | 183 | 11.3 | 14.5 | 0.00 | 0.00 | 0.00 | 84 | 999.9 |
| 20260505113442 | 20 | 174 | 4.8 | 14.5 | 0.00 | 0.00 | 0.00 | 83 | 999.8 |
| 20260505112937 | 20 | 239 | 9.7 | 12.9 | 0.00 | 0.00 | 0.00 | 83 | 999.4 |
| 20260505112435 | 20 | 182 | 9.7 | 20.9 | 0.00 | 0.00 | 0.00 | 82 | 999.6 |
| 20260505111932 | 20 | 214 | 12.9 | 16.1 | 0.00 | 0.00 | 0.00 | 82 | 999.5 |
| 20260505111426 | 20 | 217 | 11.3 | 14.5 | 0.00 | 0.00 | 0.00 | 82 | 999.5 |
| 20260505110923 | 20 | 221 | 8.0 | 16.1 | 0.00 | 0.00 | 0.00 | 82 | 999.5 |
| 20260505110420 | 20 | 227 | 14.5 | 22.5 | 0.00 | 0.00 | 0.00 | 82 | 999.3 |
| 20260505101850 | 21 | 225 | 11.3 | 20.9 | 0.00 | 0.00 | 0.00 | 80 | 999.2 |
| 20260505101345 | 21 | 216 | 8.0 | 17.7 | 0.00 | 0.00 | 0.00 | 80 | 999.3 |
| 20260505100841 | 21 | 217 | 11.3 | 24.1 | 0.00 | 0.00 | 0.00 | 80 | 999.3 |
| 20260505100338 | 21 | 221 | 17.7 | 25.7 | 0.00 | 0.00 | 0.00 | 79 | 999.2 |
| 20260505095834 | 21 | 191 | 12.9 | 29.0 | 0.00 | 0.00 | 0.00 | 79 | 999.2 |
| 20260505095332 | 21 | 206 | 14.5 | 22.5 | 0.00 | 0.00 | 0.00 | 80 | 999.3 |
| 20260505094827 | 21 | 210 | 16.1 | 22.5 | 0.00 | 0.00 | 0.00 | 79 | 999.3 |
| 20260505094325 | 21 | 184 | 16.1 | 20.9 | 0.00 | 0.00 | 0.00 | 80 | 999.5 |
| 20260505093820 | 21 | 206 | 17.7 | 24.1 | 0.00 | 0.00 | 0.00 | 80 | 999.3 |
| 20260505093318 | 21 | 207 | 11.3 | 17.7 | 0.00 | 0.00 | 0.00 | 80 | 999.0 |
| 20260505092814 | 21 | 211 | 16.1 | 22.5 | 0.00 | 0.00 | 0.00 | 80 | 999.2 |
| 20260505092313 | 21 | 203 | 11.3 | 22.5 | 0.00 | 0.00 | 0.00 | 80 | 999.1 |
| 20260505091810 | 21 | 208 | 14.5 | 22.5 | 0.00 | 0.00 | 0.00 | 80 | 999.2 |
| 20260505091308 | 21 | 197 | 14.5 | 20.9 | 0.00 | 0.00 | 0.00 | 80 | 999.1 |
| 20260505090806 | 21 | 196 | 14.5 | 16.1 | 0.00 | 0.00 | 0.00 | 80 | 999.5 |
| 20260505090304 | 21 | 191 | 11.3 | 16.1 | 0.00 | 0.00 | 0.00 | 80 | 999.3 |
| 20260505085801 | 22 | 195 | 12.9 | 17.7 | 0.00 | 0.00 | 0.00 | 79 | 999.5 |
| 20260505085259 | 22 | 212 | 14.5 | 20.9 | 0.00 | 0.00 | 0.00 | 79 | 999.5 |
| 20260505084756 | 22 | 229 | 12.9 | 22.5 | 0.00 | 0.00 | 0.00 | 79 | 999.6 |
| 20260505084255 | 22 | 181 | 11.3 | 20.9 | 0.00 | 0.00 | 0.00 | 79 | 999.5 |
| 20260505083751 | 22 | 215 | 17.7 | 22.5 | 0.00 | 0.00 | 0.00 | 79 | 999.4 |
| 20260505083248 | 22 | 217 | 14.5 | 17.7 | 0.00 | 0.00 | 0.00 | 78 | 999.5 |
| 20260505082744 | 22 | 196 | 14.5 | 20.9 | 0.00 | 0.00 | 0.00 | 79 | 999.5 |
| 20260505082242 | 22 | 203 | 12.9 | 24.1 | 0.00 | 0.00 | 0.00 | 79 | 999.7 |
| 20260505081737 | 22 | 191 | 12.9 | 16.1 | 0.00 | 0.00 | 0.00 | 79 | 999.8 |
| 20260505081235 | 22 | 183 | 19.3 | 22.5 | 0.00 | 0.00 | 0.00 | 79 | 999.7 |
| 20260505080732 | 22 | 222 | 17.7 | 29.0 | 0.00 | 0.00 | 0.00 | 80 | 999.8 |
| 20260505080227 | 21 | 186 | 14.5 | 20.9 | 0.00 | 0.00 | 0.00 | 80 | 999.9 |
| 20260505075723 | 22 | 188 | 11.3 | 14.5 | 0.00 | 0.00 | 0.00 | 80 | 999.8 |
| 20260505075221 | 22 | 149 | 11.3 | 22.5 | 0.00 | 0.00 | 0.00 | 79 | 999.8 |
| 20260505074718 | 22 | 210 | 17.7 | 20.9 | 0.00 | 0.00 | 0.00 | 79 | 999.9 |
| 20260505074215 | 22 | 189 | 14.5 | 20.9 | 0.00 | 0.00 | 0.00 | 79 | 1000.1 |
| 20260505073712 | 22 | 210 | 8.0 | 20.9 | 0.00 | 0.00 | 0.00 | 79 | 1000.3 |
| 20260505073210 | 22 | 211 | 9.7 | 16.1 | 0.00 | 0.00 | 0.00 | 79 | 1000.2 |
| 20260505072706 | 21 | 192 | 12.9 | 20.9 | 0.00 | 0.00 | 0.00 | 80 | 1000.0 |
| 20260505072202 | 21 | 183 | 16.1 | 27.4 | 0.00 | 0.00 | 0.00 | 79 | 1000.1 |
| 20260505071658 | 21 | 229 | 17.7 | 25.7 | 0.00 | 0.00 | 0.00 | 80 | 1000.2 |
| 20260505071155 | 21 | 180 | 14.5 | 17.7 | 0.00 | 0.00 | 0.00 | 80 | 1000.2 |
| 20260505070653 | 21 | 207 | 17.7 | 24.1 | 0.00 | 0.00 | 0.00 | 80 | 1000.4 |
| 20260505070149 | 21 | 242 | 17.7 | 24.1 | 0.00 | 0.00 | 0.00 | 80 | 1000.5 |
| 20260505065645 | 21 | 203 | 17.7 | 22.5 | 0.00 | 0.00 | 0.00 | 80 | 1000.6 |
| 20260505065142 | 21 | 195 | 11.3 | 20.9 | 0.00 | 0.00 | 0.00 | 80 | 1000.4 |
| 20260505064639 | 21 | 202 | 12.9 | 16.1 | 0.00 | 0.00 | 0.00 | 80 | 1000.8 |
| 20260505064137 | 21 | 182 | 19.3 | 29.0 | 0.00 | 0.00 | 0.00 | 79 | 1000.5 |
| 20260505063634 | 21 | 183 | 11.3 | 17.7 | 0.00 | 0.00 | 0.00 | 80 | 1000.8 |
| 20260505063130 | 21 | 221 | 12.9 | 22.5 | 0.00 | 0.00 | 0.00 | 79 | 1001.0 |
| 20260505062626 | 21 | 207 | 14.5 | 17.7 | 0.00 | 0.00 | 0.00 | 79 | 1000.8 |
| 20260505062124 | 21 | 190 | 12.9 | 27.4 | 0.00 | 0.00 | 0.00 | 79 | 1000.8 |
| 20260505061621 | 22 | 196 | 20.9 | 25.7 | 0.00 | 0.00 | 0.00 | 79 | 1001.1 |
| 20260505061119 | 22 | 185 | 14.5 | 22.5 | 0.00 | 0.00 | 0.00 | 78 | 1000.8 |
| 20260505060616 | 22 | 131 | 19.3 | 27.4 | 0.00 | 0.00 | 0.00 | 78 | 1001.1 |
| 20260505060113 | 22 | 192 | 8.0 | 17.7 | 0.00 | 0.00 | 0.00 | 79 | 1001.1 |
| 20260505055608 | 22 | 198 | 16.1 | 25.7 | 0.00 | 0.00 | 0.00 | 78 | 1001.1 |
| 20260505055105 | 22 | 223 | 14.5 | 24.1 | 0.00 | 0.00 | 0.00 | 78 | 1001.2 |
| 20260505054602 | 22 | 207 | 16.1 | 29.0 | 0.00 | 0.00 | 0.00 | 78 | 1001.2 |
| 20260505054101 | 22 | 183 | 12.9 | 22.5 | 0.00 | 0.00 | 0.00 | 77 | 1001.2 |
| 20260505053557 | 22 | 203 | 11.3 | 27.4 | 0.00 | 0.00 | 0.00 | 77 | 1001.3 |
| 20260505053054 | 22 | 189 | 20.9 | 27.4 | 0.00 | 0.00 | 0.00 | 77 | 1001.5 |
| 20260505052551 | 22 | 142 | 17.7 | 25.7 | 0.00 | 0.00 | 0.00 | 77 | 1001.3 |
| 20260505052048 | 22 | 225 | 17.7 | 24.1 | 0.00 | 0.00 | 0.00 | 77 | 1001.4 |
| 20260505051545 | 22 | 214 | 12.9 | 20.9 | 0.00 | 0.00 | 0.00 | 77 | 1001.6 |
| 20260505051043 | 22 | 188 | 9.7 | 17.7 | 0.00 | 0.00 | 0.00 | 77 | 1001.5 |
| 20260505050541 | 22 | 188 | 12.9 | 22.5 | 0.00 | 0.00 | 0.00 | 77 | 1001.7 |
| 20260505041509 | 23 | 215 | 22.5 | 27.4 | 0.00 | 0.00 | 0.00 | 74 | 1001.7 |
| 20260505041006 | 23 | 220 | 19.3 | 29.0 | 0.00 | 0.00 | 0.00 | 74 | 1001.8 |
| 20260505040503 | 23 | 201 | 19.3 | 22.5 | 0.00 | 0.00 | 0.00 | 75 | 1001.9 |
| 20260505040000 | 23 | 176 | 16.1 | 24.1 | 0.00 | 0.00 | 0.00 | 75 | 1002.0 |
| 20260505035456 | 23 | 196 | 12.9 | 25.7 | 0.00 | 0.00 | 0.00 | 75 | 1002.0 |
| 20260505034953 | 23 | 195 | 11.3 | 29.0 | 0.00 | 0.00 | 0.00 | 75 | 1001.9 |
| 20260505034450 | 23 | 204 | 19.3 | 27.4 | 0.00 | 0.00 | 0.00 | 74 | 1002.2 |
| 20260505033947 | 23 | 206 | 19.3 | 27.4 | 0.00 | 0.00 | 0.00 | 74 | 1001.7 |
| 20260505033443 | 23 | 203 | 19.3 | 29.0 | 0.00 | 0.00 | 0.00 | 74 | 1001.9 |
| 20260505032942 | 23 | 204 | 11.3 | 16.1 | 0.00 | 0.00 | 0.00 | 73 | 1001.9 |
| 20260505032439 | 23 | 219 | 20.9 | 29.0 | 0.00 | 0.00 | 0.00 | 73 | 1002.1 |
| 20260505031935 | 23 | 174 | 14.5 | 27.4 | 0.00 | 0.00 | 0.00 | 73 | 1001.9 |
| 20260505031432 | 23 | 210 | 14.5 | 16.1 | 0.00 | 0.00 | 0.00 | 73 | 1001.7 |
| 20260505030929 | 23 | 221 | 22.5 | 29.0 | 0.00 | 0.00 | 0.00 | 72 | 1001.7 |
| 20260505030425 | 23 | 208 | 16.1 | 22.5 | 0.00 | 0.00 | 0.00 | 71 | 1001.6 |
| 20260505025920 | 23 | 202 | 16.1 | 32.2 | 0.00 | 0.00 | 0.00 | 70 | 1001.6 |
| 20260505025418 | 23 | 229 | 19.3 | 29.0 | 0.00 | 0.00 | 0.00 | 70 | 1001.5 |
| 20260505024917 | 23 | 215 | 22.5 | 25.7 | 0.00 | 0.00 | 0.00 | 70 | 1001.8 |
| 20260505024414 | 23 | 203 | 16.1 | 27.4 | 0.00 | 0.00 | 0.00 | 70 | 1001.8 |
| 20260505023911 | 23 | 167 | 24.1 | 32.2 | 0.00 | 0.00 | 0.00 | 69 | 1001.5 |
| 20260505023408 | 24 | 168 | 16.1 | 27.4 | 0.00 | 0.00 | 0.00 | 69 | 1001.6 |
| 20260505022905 | 24 | 197 | 14.5 | 17.7 | 0.00 | 0.00 | 0.00 | 69 | 1001.6 |
| 20260505022402 | 24 | 194 | 16.1 | 24.1 | 0.00 | 0.00 | 0.00 | 69 | 1001.4 |
| 20260505021859 | 24 | 190 | 22.5 | 35.4 | 0.00 | 0.00 | 0.00 | 68 | 1001.3 |
| 20260505021355 | 24 | 172 | 16.1 | 29.0 | 0.00 | 0.00 | 0.00 | 68 | 1001.7 |
| 20260505020852 | 24 | 241 | 16.1 | 24.1 | 0.00 | 0.00 | 0.00 | 68 | 1001.5 |
| 20260505020347 | 24 | 234 | 19.3 | 22.5 | 0.00 | 0.00 | 0.00 | 68 | 1001.6 |
| 20260505015844 | 24 | 195 | 14.5 | 24.1 | 0.00 | 0.00 | 0.00 | 68 | 1001.4 |